Time;durP1;ratioP1;P1;durP2;ratioP2;P2;SDS_P1;SDS_P2;PMS_P1;PMS_P2;Temp;Humidity;BMP_temperature;BMP_pressure;BME280_temperature;BME280_humidity;BME280_pressure;Samples;Min_cycle;Max_cycle;Signal;HPM_P1;HPM_P2
2022/03/05 00:02:23;;;;;;;20.30;15.05;;;;;;;;;;143761;627;45022;-68
2022/03/05 00:04:51;;;;;;;18.37;13.13;;;;;;;;;;143757;624;46018;-69
2022/03/05 00:07:21;;;;;;;23.90;15.38;;;;;;;;;;143735;570;46022;-69
2022/03/05 00:09:48;;;;;;;22.40;15.40;;;;;;;;;;143731;573;45019;-67
2022/03/05 00:12:15;;;;;;;19.60;13.82;;;;;;;;;;143731;565;46022;-68
2022/03/05 00:14:42;;;;;;;19.50;14.40;;;;;;;;;;143726;570;46018;-68
2022/03/05 00:17:09;;;;;;;17.40;13.68;;;;;;;;;;143728;576;46023;-67
2022/03/05 00:19:36;;;;;;;19.30;13.65;;;;;;;;;;143729;591;46010;-69
2022/03/05 00:22:03;;;;;;;17.85;13.57;;;;;;;;;;143732;650;46022;-69
2022/03/05 00:24:30;;;;;;;17.85;13.68;;;;;;;;;;143727;573;46019;-69
2022/03/05 00:26:57;;;;;;;20.30;14.15;;;;;;;;;;143728;564;46022;-69
2022/03/05 00:29:25;;;;;;;19.15;14.20;;;;;;;;;;143732;564;45018;-68
2022/03/05 00:31:52;;;;;;;18.70;13.88;;;;;;;;;;143734;630;45023;-68
2022/03/05 00:34:19;;;;;;;19.05;13.35;;;;;;;;;;143728;576;46021;-69
2022/03/05 00:36:46;;;;;;;19.65;14.85;;;;;;;;;;143726;565;46022;-68
2022/03/05 00:39:13;;;;;;;20.25;14.48;;;;;;;;;;143729;571;46011;-69
2022/03/05 00:41:41;;;;;;;16.60;12.13;;;;;;;;;;143734;607;45023;-69
2022/03/05 00:44:08;;;;;;;17.27;12.52;;;;;;;;;;143728;646;46020;-68
2022/03/05 00:46:35;;;;;;;19.27;13.25;;;;;;;;;;143728;638;46023;-68
2022/03/05 00:49:02;;;;;;;31.17;15.80;;;;;;;;;;143732;566;45019;-68
2022/03/05 00:51:29;;;;;;;19.87;13.20;;;;;;;;;;143732;571;46010;-68
2022/03/05 00:53:56;;;;;;;18.02;12.90;;;;;;;;;;143729;582;46019;-68
2022/03/05 00:56:23;;;;;;;20.25;14.85;;;;;;;;;;143730;624;46010;-69
2022/03/05 00:58:50;;;;;;;16.02;11.70;;;;;;;;;;143728;655;46018;-67
2022/03/05 01:01:17;;;;;;;17.33;12.77;;;;;;;;;;143732;590;46010;-69
2022/03/05 01:03:44;;;;;;;20.50;13.60;;;;;;;;;;143727;652;46019;-69
2022/03/05 01:06:11;;;;;;;18.67;12.32;;;;;;;;;;143730;588;46010;-69
2022/03/05 01:08:38;;;;;;;17.65;12.82;;;;;;;;;;143729;581;46019;-69
2022/03/05 01:11:05;;;;;;;15.60;11.52;;;;;;;;;;143730;597;46022;-68
2022/03/05 01:13:32;;;;;;;14.70;11.70;;;;;;;;;;143729;569;46018;-69
2022/03/05 01:15:59;;;;;;;16.42;10.57;;;;;;;;;;143729;574;46011;-69
2022/03/05 01:18:26;;;;;;;19.02;13.18;;;;;;;;;;143731;566;45022;-70
2022/03/05 01:20:53;;;;;;;16.65;12.50;;;;;;;;;;143734;618;45022;-69
2022/03/05 01:23:20;;;;;;;24.48;12.90;;;;;;;;;;143728;600;47018;-68
2022/03/05 01:25:48;;;;;;;18.45;12.35;;;;;;;;;;143728;616;46022;-68
2022/03/05 01:28:14;;;;;;;16.77;12.27;;;;;;;;;;143729;569;46010;-68
2022/03/05 01:30:41;;;;;;;16.35;12.63;;;;;;;;;;143732;627;46010;-68
2022/03/05 01:33:09;;;;;;;16.40;12.30;;;;;;;;;;143731;569;45913;-67
2022/03/05 01:35:36;;;;;;;17.83;12.80;;;;;;;;;;143728;611;46022;-68
2022/03/05 01:38:02;;;;;;;17.20;12.35;;;;;;;;;;143730;601;45027;-68
2022/03/05 01:40:31;;;;;;;19.23;14.15;;;;;;;;;;143734;586;45023;-69
2022/03/05 01:42:58;;;;;;;20.15;14.10;;;;;;;;;;143727;566;46018;-69
2022/03/05 01:45:25;;;;;;;18.83;13.20;;;;;;;;;;143727;589;46022;-69
2022/03/05 01:47:52;;;;;;;20.80;13.38;;;;;;;;;;143729;625;46019;-67
2022/03/05 01:50:19;;;;;;;19.37;13.73;;;;;;;;;;143731;570;46022;-68
2022/03/05 01:52:46;;;;;;;15.55;11.25;;;;;;;;;;143727;576;46018;-68
2022/03/05 01:55:14;;;;;;;16.62;12.57;;;;;;;;;;143726;638;46022;-68
2022/03/05 01:57:41;;;;;;;13.50;10.52;;;;;;;;;;143730;595;45018;-67
2022/03/05 02:00:10;;;;;;;17.70;12.88;;;;;;;;;;143731;627;46022;-69
2022/03/05 02:02:37;;;;;;;18.85;12.80;;;;;;;;;;143727;570;46019;-68
2022/03/05 02:05:05;;;;;;;20.70;15.20;;;;;;;;;;143724;591;46022;-68
2022/03/05 02:07:33;;;;;;;20.83;15.85;;;;;;;;;;143730;573;45018;-67
2022/03/05 02:10:00;;;;;;;19.12;14.32;;;;;;;;;;143731;680;46010;-68
2022/03/05 02:12:31;;;;;;;16.37;13.38;;;;;;;;;;143725;587;47018;-68
2022/03/05 02:14:59;;;;;;;19.77;12.93;;;;;;;;;;143727;609;46010;-67
2022/03/05 02:17:27;;;;;;;19.92;12.90;;;;;;;;;;143729;646;45019;-69
2022/03/05 02:19:54;;;;;;;19.95;13.38;;;;;;;;;;143731;588;46010;-68
2022/03/05 02:22:21;;;;;;;18.33;12.10;;;;;;;;;;143727;657;46018;-67
2022/03/05 02:24:52;;;;;;;19.42;12.77;;;;;;;;;;143725;588;46023;-69
2022/03/05 02:27:22;;;;;;;15.65;12.18;;;;;;;;;;143726;574;46010;-68
2022/03/05 02:29:48;;;;;;;16.27;11.15;;;;;;;;;;143731;566;46010;-69
2022/03/05 02:32:16;;;;;;;17.27;12.27;;;;;;;;;;143727;585;46019;-67
2022/03/05 02:34:43;;;;;;;14.48;10.50;;;;;;;;;;143726;626;46036;-69
2022/03/05 02:37:15;;;;;;;17.98;13.02;;;;;;;;;;143729;563;45029;-68
2022/03/05 02:39:42;;;;;;;18.73;13.55;;;;;;;;;;143730;565;46010;-68
2022/03/05 02:42:10;;;;;;;17.77;13.10;;;;;;;;;;143726;571;46020;-69
2022/03/05 02:44:37;;;;;;;19.25;13.32;;;;;;;;;;143726;615;46020;-67
2022/03/05 02:47:04;;;;;;;18.37;13.55;;;;;;;;;;143726;597;46010;-68
2022/03/05 02:49:31;;;;;;;18.02;13.15;;;;;;;;;;143732;612;45020;-68
2022/03/05 02:51:58;;;;;;;18.65;13.05;;;;;;;;;;143727;564;46020;-68
2022/03/05 02:54:25;;;;;;;18.87;12.88;;;;;;;;;;143727;588;46010;-67
2022/03/05 02:56:52;;;;;;;20.88;13.98;;;;;;;;;;143729;586;45021;-68
2022/03/05 02:59:19;;;;;;;23.20;15.10;;;;;;;;;;143732;577;45020;-68
2022/03/05 03:01:47;;;;;;;23.33;15.18;;;;;;;;;;143726;654;46021;-69
2022/03/05 03:04:13;;;;;;;20.48;13.48;;;;;;;;;;143727;574;46919;-68
2022/03/05 03:06:40;;;;;;;16.87;12.23;;;;;;;;;;143728;587;45020;-69
2022/03/05 03:09:07;;;;;;;20.77;14.32;;;;;;;;;;143732;616;45021;-68
2022/03/05 03:11:35;;;;;;;20.58;15.90;;;;;;;;;;143724;587;46023;-68
2022/03/05 03:14:02;;;;;;;21.65;17.20;;;;;;;;;;143724;654;46020;-68
2022/03/05 03:16:29;;;;;;;20.70;14.18;;;;;;;;;;143728;573;46010;-69
2022/03/05 03:18:56;;;;;;;17.05;11.00;;;;;;;;;;143731;564;46020;-69
2022/03/05 03:21:24;;;;;;;20.85;14.95;;;;;;;;;;143727;614;46020;-68
2022/03/05 03:23:51;;;;;;;19.70;12.95;;;;;;;;;;143724;570;46021;-69
2022/03/05 03:26:18;;;;;;;19.83;13.43;;;;;;;;;;143729;600;45027;-68
2022/03/05 03:28:45;;;;;;;18.50;12.32;;;;;;;;;;143731;612;46020;-69
2022/03/05 03:31:12;;;;;;;17.98;11.75;;;;;;;;;;143726;603;46051;-69
2022/03/05 03:33:39;;;;;;;15.68;11.23;;;;;;;;;;143726;604;46020;-68
2022/03/05 03:36:06;;;;;;;16.20;12.15;;;;;;;;;;143728;610;46010;-70
2022/03/05 03:38:33;;;;;;;16.65;11.48;;;;;;;;;;143732;564;45021;-70
2022/03/05 03:41:00;;;;;;;16.00;11.30;;;;;;;;;;143725;592;47023;-70
2022/03/05 03:43:27;;;;;;;15.45;10.65;;;;;;;;;;143724;577;46020;-69
2022/03/05 03:45:54;;;;;;;17.83;10.63;;;;;;;;;;143728;606;46010;-70
2022/03/05 03:48:22;;;;;;;10.57;7.30;;;;;;;;;;143730;597;46021;-68
2022/03/05 03:50:49;;;;;;;8.98;6.35;;;;;;;;;;143729;587;46020;-70
2022/03/05 03:53:16;;;;;;;9.40;6.78;;;;;;;;;;143727;575;46919;-68
2022/03/05 03:55:43;;;;;;;9.93;5.95;;;;;;;;;;143728;607;45021;-68
2022/03/05 03:58:10;;;;;;;8.25;5.90;;;;;;;;;;143732;603;45020;-70
2022/03/05 04:00:37;;;;;;;6.22;4.60;;;;;;;;;;143726;666;47021;-68
2022/03/05 04:03:04;;;;;;;7.80;4.87;;;;;;;;;;143726;596;46020;-70
2022/03/05 04:05:31;;;;;;;7.82;5.68;;;;;;;;;;143730;588;45020;-68
2022/03/05 04:10:43;;;;;;;6.50;4.47;;;;;;;;;;143727;569;46021;-69
2022/03/05 04:13:10;;;;;;;8.15;5.72;;;;;;;;;;143726;613;46020;-67
2022/03/05 04:15:37;;;;;;;8.05;5.28;;;;;;;;;;143730;569;45021;-69
2022/03/05 04:18:04;;;;;;;6.40;4.22;;;;;;;;;;143730;582;46020;-68
2022/03/05 04:20:31;;;;;;;6.05;4.60;;;;;;;;;;143727;572;46022;-68
2022/03/05 04:22:58;;;;;;;6.20;4.25;;;;;;;;;;143726;595;46021;-69
2022/03/05 04:25:26;;;;;;;5.65;3.92;;;;;;;;;;143728;680;45020;-68
2022/03/05 04:27:53;;;;;;;5.85;4.50;;;;;;;;;;143731;569;46020;-67
2022/03/05 04:30:20;;;;;;;6.80;4.80;;;;;;;;;;143727;660;46021;-68
2022/03/05 04:32:47;;;;;;;4.65;3.47;;;;;;;;;;143726;610;46020;-68
2022/03/05 04:35:14;;;;;;;5.62;4.18;;;;;;;;;;143728;587;45020;-68
2022/03/05 04:37:41;;;;;;;5.57;4.37;;;;;;;;;;143731;564;46020;-68
2022/03/05 04:40:10;;;;;;;6.35;4.45;;;;;;;;;;143727;583;46020;-67
2022/03/05 04:42:37;;;;;;;5.62;3.87;;;;;;;;;;143726;590;46020;-67
2022/03/05 04:45:07;;;;;;;6.85;4.37;;;;;;;;;;143727;628;45909;-68
2022/03/05 04:47:34;;;;;;;4.68;3.58;;;;;;;;;;143731;577;46021;-68
2022/03/05 04:50:01;;;;;;;5.12;3.92;;;;;;;;;;143727;582;46020;-68
2022/03/05 04:52:28;;;;;;;5.85;4.50;;;;;;;;;;143726;572;47020;-68
2022/03/05 04:54:55;;;;;;;5.45;3.83;;;;;;;;;;143729;602;45037;-69
2022/03/05 04:57:22;;;;;;;8.43;4.55;;;;;;;;;;143731;593;46020;-68
2022/03/05 04:59:49;;;;;;;6.00;4.20;;;;;;;;;;143727;593;46021;-69
2022/03/05 05:02:16;;;;;;;6.47;4.03;;;;;;;;;;143727;592;46917;-69
2022/03/05 05:04:43;;;;;;;5.85;4.22;;;;;;;;;;143730;636;45020;-68
2022/03/05 05:07:10;;;;;;;5.97;4.72;;;;;;;;;;143731;595;46020;-67
2022/03/05 05:09:37;;;;;;;6.22;4.53;;;;;;;;;;143726;618;47020;-68
2022/03/05 05:12:05;;;;;;;6.55;4.50;;;;;;;;;;143724;587;46020;-68
2022/03/05 05:14:32;;;;;;;6.03;4.37;;;;;;;;;;143727;584;46010;-67
2022/03/05 05:16:59;;;;;;;6.45;4.62;;;;;;;;;;143730;575;46021;-69
2022/03/05 05:19:27;;;;;;;6.72;4.85;;;;;;;;;;143726;596;46022;-68
2022/03/05 05:22:05;;;;;;;6.07;4.45;;;;;;;;;;143724;618;46021;-69
2022/03/05 05:24:35;;;;;;;8.15;5.12;;;;;;;;;;143729;565;45020;-68
2022/03/05 05:27:02;;;;;;;6.97;4.70;;;;;;;;;;143729;613;46020;-68
2022/03/05 05:29:30;;;;;;;6.80;5.20;;;;;;;;;;143727;566;46021;-68
2022/03/05 05:31:58;;;;;;;5.55;4.40;;;;;;;;;;143724;587;46020;-68
2022/03/05 05:34:25;;;;;;;5.50;4.45;;;;;;;;;;143728;569;46010;-68
2022/03/05 05:36:52;;;;;;;7.45;3.97;;;;;;;;;;143732;653;45021;-69
2022/03/05 05:39:20;;;;;;;5.55;4.00;;;;;;;;;;143727;581;46021;-68
2022/03/05 05:41:47;;;;;;;5.10;3.83;;;;;;;;;;143733;600;46010;-69
2022/03/05 05:44:13;;;;;;;6.75;4.20;;;;;;;;;;143727;593;45909;-67
2022/03/05 05:46:40;;;;;;;5.55;3.97;;;;;;;;;;143732;586;45021;-69
2022/03/05 05:49:08;;;;;;;3.97;3.55;;;;;;;;;;143725;653;46022;-69
2022/03/05 05:51:35;;;;;;;3.85;3.45;;;;;;;;;;143725;575;46020;-70
2022/03/05 05:54:02;;;;;;;5.37;4.12;;;;;;;;;;143728;565;45910;-69
2022/03/05 05:56:29;;;;;;;6.18;4.40;;;;;;;;;;143730;580;46020;-70
2022/03/05 05:58:56;;;;;;;6.25;4.00;;;;;;;;;;143727;571;46020;-68
2022/03/05 06:01:23;;;;;;;5.28;4.12;;;;;;;;;;143724;575;46021;-69
2022/03/05 06:03:50;;;;;;;5.93;4.60;;;;;;;;;;143726;580;46020;-68
2022/03/05 06:06:17;;;;;;;7.32;5.35;;;;;;;;;;143730;564;46011;-69
2022/03/05 06:08:45;;;;;;;7.10;5.03;;;;;;;;;;143727;651;46023;-68
2022/03/05 06:11:12;;;;;;;6.70;4.93;;;;;;;;;;143725;602;46020;-70
2022/03/05 06:13:39;;;;;;;6.82;5.12;;;;;;;;;;143729;662;45021;-68
2022/03/05 06:16:06;;;;;;;7.65;5.43;;;;;;;;;;143732;596;45021;-69
2022/03/05 06:18:34;;;;;;;7.20;5.43;;;;;;;;;;143727;573;46020;-70
2022/03/05 06:21:01;;;;;;;6.95;5.12;;;;;;;;;;143727;596;46021;-68
2022/03/05 06:23:30;;;;;;;7.87;5.43;;;;;;;;;;143729;600;45021;-69
2022/03/05 06:25:57;;;;;;;7.18;5.22;;;;;;;;;;143730;599;46010;-68
2022/03/05 06:28:24;;;;;;;6.75;5.12;;;;;;;;;;143729;570;45911;-69
2022/03/05 06:30:51;;;;;;;6.30;4.87;;;;;;;;;;143729;606;45917;-70
2022/03/05 06:33:18;;;;;;;6.18;4.53;;;;;;;;;;143727;632;46020;-70
2022/03/05 06:35:45;;;;;;;7.32;5.20;;;;;;;;;;143732;580;45020;-70
2022/03/05 06:38:12;;;;;;;7.15;5.37;;;;;;;;;;143727;648;46021;-70
2022/03/05 06:40:39;;;;;;;7.40;5.40;;;;;;;;;;143728;607;46010;-70
2022/03/05 06:43:06;;;;;;;8.30;6.28;;;;;;;;;;143726;588;46020;-68
2022/03/05 06:45:33;;;;;;;7.68;5.20;;;;;;;;;;143732;629;45021;-69
2022/03/05 06:48:00;;;;;;;7.37;5.37;;;;;;;;;;143727;619;46020;-69
2022/03/05 06:50:27;;;;;;;6.95;4.95;;;;;;;;;;143727;599;46010;-69
2022/03/05 06:52:54;;;;;;;8.05;5.65;;;;;;;;;;143729;577;45037;-69
2022/03/05 06:55:23;;;;;;;6.82;4.70;;;;;;;;;;143731;575;46010;-70
2022/03/05 06:57:50;;;;;;;5.75;4.10;;;;;;;;;;143727;658;46021;-68
2022/03/05 07:00:18;;;;;;;6.68;4.18;;;;;;;;;;143728;599;46932;-68
2022/03/05 07:02:45;;;;;;;5.53;4.12;;;;;;;;;;143730;570;46010;-68
2022/03/05 07:05:12;;;;;;;4.18;3.35;;;;;;;;;;143730;591;46020;-68
2022/03/05 07:07:39;;;;;;;8.80;4.68;;;;;;;;;;143726;565;46023;-68
2022/03/05 07:10:07;;;;;;;9.02;5.53;;;;;;;;;;143726;627;46020;-70
2022/03/05 07:12:34;;;;;;;9.43;5.78;;;;;;;;;;143728;586;46012;-67
2022/03/05 07:15:02;;;;;;;14.75;8.52;;;;;;;;;;143731;599;46010;-68
2022/03/05 07:17:29;;;;;;;2.65;2.33;;;;;;;;;;143729;637;46020;-68
2022/03/05 07:19:56;;;;;;;4.40;2.75;;;;;;;;;;143726;564;46020;-68
2022/03/05 07:22:23;;;;;;;3.37;2.90;;;;;;;;;;143728;574;45021;-69
2022/03/05 07:24:51;;;;;;;7.90;4.62;;;;;;;;;;143731;584;46010;-68
2022/03/05 07:27:18;;;;;;;4.72;3.20;;;;;;;;;;143725;585;46020;-68
2022/03/05 07:29:46;;;;;;;6.50;4.30;;;;;;;;;;143726;574;46020;-70
2022/03/05 07:32:14;;;;;;;7.45;5.07;;;;;;;;;;143728;587;46029;-70
2022/03/05 07:34:41;;;;;;;9.95;5.60;;;;;;;;;;143729;672;46010;-68
2022/03/05 07:37:08;;;;;;;10.00;5.40;;;;;;;;;;143726;606;46021;-67
2022/03/05 07:39:35;;;;;;;9.27;5.25;;;;;;;;;;143724;577;46020;-68
2022/03/05 07:42:02;;;;;;;7.85;4.80;;;;;;;;;;143727;610;46012;-69
2022/03/05 07:44:30;;;;;;;5.95;4.57;;;;;;;;;;143732;596;45021;-67
2022/03/05 07:46:57;;;;;;;8.45;5.45;;;;;;;;;;143727;664;46020;-69
2022/03/05 07:49:25;;;;;;;7.10;4.53;;;;;;;;;;143724;655;46020;-67
2022/03/05 07:51:52;;;;;;;7.07;4.70;;;;;;;;;;143726;570;46023;-67
2022/03/05 07:54:19;;;;;;;6.95;3.83;;;;;;;;;;143732;612;45032;-70
2022/03/05 07:56:46;;;;;;;7.70;4.72;;;;;;;;;;143727;636;46020;-67
2022/03/05 07:59:14;;;;;;;6.05;3.87;;;;;;;;;;143726;564;46020;-67
2022/03/05 08:01:41;;;;;;;4.32;3.17;;;;;;;;;;143726;566;47018;-68
2022/03/05 08:04:07;;;;;;;5.87;3.78;;;;;;;;;;143732;565;46020;-67
2022/03/05 08:06:35;;;;;;;5.22;3.90;;;;;;;;;;143728;590;46021;-68
2022/03/05 08:09:02;;;;;;;5.30;3.40;;;;;;;;;;143727;573;46020;-69
2022/03/05 08:11:29;;;;;;;4.80;3.53;;;;;;;;;;143730;565;45020;-68
2022/03/05 08:13:56;;;;;;;4.72;3.70;;;;;;;;;;143732;570;46020;-67
2022/03/05 08:16:23;;;;;;;6.85;3.70;;;;;;;;;;143726;624;46020;-68
2022/03/05 08:18:50;;;;;;;4.50;3.35;;;;;;;;;;143727;596;46020;-69
2022/03/05 08:21:17;;;;;;;5.22;3.83;;;;;;;;;;143729;576;45034;-68
2022/03/05 08:23:44;;;;;;;5.65;3.87;;;;;;;;;;143732;574;46010;-69
2022/03/05 08:26:13;;;;;;;7.40;4.60;;;;;;;;;;143728;565;46020;-68
2022/03/05 08:28:43;;;;;;;7.35;5.10;;;;;;;;;;143725;569;46021;-69
2022/03/05 08:31:09;;;;;;;6.75;5.10;;;;;;;;;;143728;599;46012;-68
2022/03/05 08:33:36;;;;;;;8.75;5.65;;;;;;;;;;143733;591;45020;-69
2022/03/05 08:36:04;;;;;;;9.15;6.55;;;;;;;;;;143728;629;46022;-68
2022/03/05 08:38:31;;;;;;;8.90;5.78;;;;;;;;;;143726;604;46020;-69
2022/03/05 08:40:59;;;;;;;5.72;4.07;;;;;;;;;;143729;595;45020;-69
2022/03/05 08:43:26;;;;;;;5.57;3.90;;;;;;;;;;143729;587;46020;-67
2022/03/05 08:45:53;;;;;;;10.43;5.00;;;;;;;;;;143728;569;46021;-67
2022/03/05 08:48:20;;;;;;;4.57;3.53;;;;;;;;;;143727;639;46020;-68
2022/03/05 08:50:47;;;;;;;4.78;3.17;;;;;;;;;;143730;591;45021;-68
2022/03/05 08:53:15;;;;;;;4.18;3.65;;;;;;;;;;143732;575;46010;-67
2022/03/05 08:55:42;;;;;;;5.57;3.83;;;;;;;;;;143727;565;46029;-68
2022/03/05 08:58:08;;;;;;;6.40;3.78;;;;;;;;;;143727;624;46021;-67
2022/03/05 09:00:35;;;;;;;6.53;4.32;;;;;;;;;;143727;622;46012;-66
2022/03/05 09:03:02;;;;;;;8.60;4.25;;;;;;;;;;143732;646;46020;-67
2022/03/05 09:05:30;;;;;;;9.55;4.10;;;;;;;;;;143727;566;47021;-68
2022/03/05 09:07:57;;;;;;;4.70;3.58;;;;;;;;;;143727;634;46020;-67
2022/03/05 09:10:24;;;;;;;5.47;3.40;;;;;;;;;;143727;617;46012;-67
2022/03/05 09:12:51;;;;;;;8.27;4.20;;;;;;;;;;143731;564;46010;-68
2022/03/05 09:15:18;;;;;;;5.10;3.58;;;;;;;;;;143727;569;46023;-69
2022/03/05 09:17:45;;;;;;;6.05;4.20;;;;;;;;;;143727;671;46020;-68
2022/03/05 09:20:12;;;;;;;7.07;4.78;;;;;;;;;;143729;684;45911;-68
2022/03/05 09:22:39;;;;;;;12.25;4.32;;;;;;;;;;143731;602;46010;-68
2022/03/05 09:25:06;;;;;;;6.95;3.95;;;;;;;;;;143727;632;46022;-67
2022/03/05 09:27:33;;;;;;;8.88;3.92;;;;;;;;;;143725;588;46021;-67
2022/03/05 09:30:00;;;;;;;5.50;3.83;;;;;;;;;;143728;569;46910;-68
2022/03/05 09:32:28;;;;;;;8.55;4.10;;;;;;;;;;143732;622;46020;-67
2022/03/05 09:34:59;;;;;;;8.02;4.65;;;;;;;;;;143728;620;46021;-67
2022/03/05 09:37:28;;;;;;;6.37;4.35;;;;;;;;;;143729;576;46012;-68
2022/03/05 09:39:56;;;;;;;6.45;4.35;;;;;;;;;;143729;579;46012;-68
2022/03/05 09:42:23;;;;;;;8.73;4.60;;;;;;;;;;143732;564;46020;-68
2022/03/05 09:44:50;;;;;;;5.70;4.62;;;;;;;;;;143728;646;46021;-67
2022/03/05 09:47:18;;;;;;;13.52;7.57;;;;;;;;;;143729;675;46020;-69
2022/03/05 09:49:44;;;;;;;10.85;6.18;;;;;;;;;;143729;564;46012;-69
2022/03/05 09:52:11;;;;;;;8.25;4.90;;;;;;;;;;143732;589;46021;-69
2022/03/05 09:54:39;;;;;;;11.12;6.87;;;;;;;;;;143729;618;46020;-69
2022/03/05 09:57:10;;;;;;;9.32;6.03;;;;;;;;;;143732;592;46013;-67
2022/03/05 09:59:38;;;;;;;11.80;6.00;;;;;;;;;;143731;592;45911;-67
2022/03/05 10:02:05;;;;;;;17.35;5.60;;;;;;;;;;143733;630;46020;-68
2022/03/05 10:04:33;;;;;;;9.23;6.93;;;;;;;;;;143729;565;46021;-68
2022/03/05 10:07:17;;;;;;;19.23;9.15;;;;;;;;;;143727;586;46020;-68
2022/03/05 10:09:47;;;;;;;10.10;7.32;;;;;;;;;;143725;574;46020;-69
2022/03/05 10:12:33;;;;;;;15.05;8.77;;;;;;;;;;143732;569;46020;-68
2022/03/05 10:15:17;;;;;;;15.68;9.18;;;;;;;;;;143728;569;46023;-69
2022/03/05 10:17:59;;;;;;;17.30;9.55;;;;;;;;;;143728;576;46020;-68
2022/03/05 10:20:34;;;;;;;16.08;9.52;;;;;;;;;;143729;566;46012;-68
2022/03/05 10:23:09;;;;;;;11.40;8.20;;;;;;;;;;143733;695;46010;-68
2022/03/05 10:25:42;;;;;;;16.90;10.00;;;;;;;;;;143729;633;47020;-68
2022/03/05 10:28:25;;;;;;;10.40;7.37;;;;;;;;;;143726;721;46021;-69
2022/03/05 10:31:03;;;;;;;17.90;9.23;;;;;;;;;;143729;595;46012;-70
2022/03/05 10:33:50;;;;;;;15.00;8.45;;;;;;;;;;143733;597;46020;-68
2022/03/05 10:36:26;;;;;;;11.30;8.05;;;;;;;;;;143729;690;46021;-69
2022/03/05 10:39:04;;;;;;;10.50;7.32;;;;;;;;;;143726;585;46020;-70
2022/03/05 10:41:36;;;;;;;10.88;8.00;;;;;;;;;;143730;577;46012;-68
2022/03/05 10:44:21;;;;;;;13.05;8.43;;;;;;;;;;143734;586;45021;-68
2022/03/05 10:46:59;;;;;;;13.40;9.95;;;;;;;;;;143728;610;46020;-68
2022/03/05 10:49:36;;;;;;;12.57;8.30;;;;;;;;;;143728;601;46021;-70
2022/03/05 10:52:08;;;;;;;15.70;8.60;;;;;;;;;;143730;588;46012;-70
2022/03/05 10:54:42;;;;;;;12.85;8.90;;;;;;;;;;143732;572;46010;-68
2022/03/05 10:57:22;;;;;;;14.68;8.63;;;;;;;;;;143728;608;46021;-68
2022/03/05 10:59:55;;;;;;;12.32;7.90;;;;;;;;;;143726;564;46020;-68
2022/03/05 11:02:23;;;;;;;12.20;7.57;;;;;;;;;;143729;598;46012;-68
2022/03/05 11:04:51;;;;;;;13.52;7.60;;;;;;;;;;143734;589;45028;-70
2022/03/05 11:07:20;;;;;;;11.35;8.63;;;;;;;;;;143726;573;46021;-69
2022/03/05 11:09:49;;;;;;;12.27;8.20;;;;;;;;;;143728;579;46020;-70
2022/03/05 11:12:18;;;;;;;10.20;6.82;;;;;;;;;;143732;575;45021;-69
2022/03/05 11:14:49;;;;;;;9.35;5.68;;;;;;;;;;143732;585;46021;-69
2022/03/05 11:17:16;;;;;;;8.05;4.55;;;;;;;;;;143731;667;45024;-68
2022/03/05 11:19:44;;;;;;;3.70;3.33;;;;;;;;;;143730;566;46012;-68
2022/03/05 11:22:12;;;;;;;9.10;4.85;;;;;;;;;;143731;573;45031;-67
2022/03/05 11:24:41;;;;;;;9.18;4.40;;;;;;;;;;143732;586;46020;-67
2022/03/05 11:27:13;;;;;;;7.00;4.35;;;;;;;;;;143729;570;46021;-67
2022/03/05 11:29:59;;;;;;;7.20;3.95;;;;;;;;;;143728;606;46012;-67
2022/03/05 11:32:35;;;;;;;7.50;4.40;;;;;;;;;;143731;591;45020;-66
2022/03/05 11:35:16;;;;;;;8.57;6.00;;;;;;;;;;143731;598;46020;-68
2022/03/05 11:37:44;;;;;;;8.07;5.28;;;;;;;;;;143728;577;46020;-67
2022/03/05 11:40:37;;;;;;;8.10;4.95;;;;;;;;;;143728;573;46020;-68
2022/03/05 11:43:24;;;;;;;8.70;4.47;;;;;;;;;;143731;594;45021;-67
2022/03/05 11:46:03;;;;;;;10.80;6.18;;;;;;;;;;143732;586;46020;-68
2022/03/05 11:48:32;;;;;;;10.65;5.97;;;;;;;;;;143729;638;46020;-67
2022/03/05 11:51:01;;;;;;;13.90;6.50;;;;;;;;;;143726;609;46021;-68
2022/03/05 11:53:28;;;;;;;8.90;4.90;;;;;;;;;;143730;569;46012;-67
2022/03/05 11:55:56;;;;;;;7.12;5.30;;;;;;;;;;143734;596;46020;-68
2022/03/05 11:58:28;;;;;;;7.78;5.53;;;;;;;;;;143728;564;47020;-67
2022/03/05 12:00:57;;;;;;;21.23;13.23;;;;;;;;;;143728;675;46020;-67
2022/03/05 12:03:37;;;;;;;22.80;12.05;;;;;;;;;;143731;594;45021;-68
2022/03/05 12:06:05;;;;;;;17.73;11.02;;;;;;;;;;143735;638;45025;-67
2022/03/05 12:08:48;;;;;;;20.98;13.07;;;;;;;;;;143729;628;46020;-68
2022/03/05 12:11:18;;;;;;;11.90;7.15;;;;;;;;;;143726;733;46021;-68
2022/03/05 12:13:54;;;;;;;9.90;7.22;;;;;;;;;;143729;564;46012;-67
2022/03/05 12:16:26;;;;;;;8.80;5.93;;;;;;;;;;143732;565;46020;-68
2022/03/05 12:18:56;;;;;;;11.05;6.20;;;;;;;;;;143730;604;46021;-68
2022/03/05 12:21:34;;;;;;;10.07;4.93;;;;;;;;;;143728;606;46020;-68
2022/03/05 12:24:09;;;;;;;11.65;5.30;;;;;;;;;;143728;601;46012;-68
2022/03/05 12:26:47;;;;;;;7.22;4.53;;;;;;;;;;143732;574;46020;-69
2022/03/05 12:29:14;;;;;;;6.05;4.20;;;;;;;;;;143729;577;46023;-67
2022/03/05 12:31:45;;;;;;;6.43;3.50;;;;;;;;;;143729;748;46012;-67
2022/03/05 12:34:13;;;;;;;5.50;4.30;;;;;;;;;;143732;579;45021;-67
2022/03/05 12:36:47;;;;;;;6.25;3.70;;;;;;;;;;143734;583;45027;-68
2022/03/05 12:39:14;;;;;;;6.12;4.30;;;;;;;;;;143729;601;46020;-67
2022/03/05 12:41:47;;;;;;;7.32;4.00;;;;;;;;;;143727;631;46021;-66
2022/03/05 12:44:14;;;;;;;6.20;3.80;;;;;;;;;;143730;656;46012;-67
2022/03/05 12:46:41;;;;;;;5.43;4.07;;;;;;;;;;143734;708;45020;-66
2022/03/05 12:49:09;;;;;;;6.97;3.87;;;;;;;;;;143729;612;46021;-67
2022/03/05 12:51:36;;;;;;;5.62;3.30;;;;;;;;;;143728;627;46020;-67
2022/03/05 12:54:05;;;;;;;5.78;3.80;;;;;;;;;;143729;623;46012;-66
2022/03/05 12:56:34;;;;;;;7.15;4.03;;;;;;;;;;143733;647;46020;-68
2022/03/05 12:59:03;;;;;;;5.43;3.30;;;;;;;;;;143729;634;46021;-67
2022/03/05 13:01:30;;;;;;;4.57;2.87;;;;;;;;;;143728;614;46012;-67
2022/03/05 13:03:59;;;;;;;7.47;4.47;;;;;;;;;;143730;630;46012;-67
2022/03/05 13:06:26;;;;;;;3.95;3.55;;;;;;;;;;143733;610;46021;-68
2022/03/05 13:08:54;;;;;;;5.12;3.95;;;;;;;;;;143729;564;46020;-67
2022/03/05 13:11:27;;;;;;;4.50;3.62;;;;;;;;;;143730;577;46012;-67
2022/03/05 13:13:58;;;;;;;5.40;3.62;;;;;;;;;;143729;707;46010;-69
2022/03/05 13:16:31;;;;;;;4.97;4.15;;;;;;;;;;143733;644;46020;-68
2022/03/05 13:19:11;;;;;;;4.40;4.00;;;;;;;;;;143729;654;46021;-67
2022/03/05 13:21:46;;;;;;;6.35;3.87;;;;;;;;;;143729;636;46012;-67
2022/03/05 13:24:18;;;;;;;7.00;4.30;;;;;;;;;;143730;566;45911;-67
2022/03/05 13:26:47;;;;;;;9.80;4.37;;;;;;;;;;143731;697;46020;-67
2022/03/05 13:29:16;;;;;;;9.93;4.47;;;;;;;;;;143729;620;46020;-67
2022/03/05 13:31:43;;;;;;;6.95;4.95;;;;;;;;;;143730;588;46012;-67
2022/03/05 13:34:21;;;;;;;8.73;5.55;;;;;;;;;;143731;579;45911;-68
2022/03/05 13:36:49;;;;;;;7.85;5.53;;;;;;;;;;143733;600;46020;-67
2022/03/05 13:39:24;;;;;;;5.87;4.60;;;;;;;;;;143728;569;46022;-67
2022/03/05 13:41:56;;;;;;;7.30;5.18;;;;;;;;;;143725;652;46032;-67
2022/03/05 13:44:25;;;;;;;8.80;5.78;;;;;;;;;;143732;574;45020;-68
2022/03/05 13:46:58;;;;;;;8.45;5.55;;;;;;;;;;143733;598;46020;-66
2022/03/05 13:49:27;;;;;;;9.13;6.20;;;;;;;;;;143729;592;46021;-67
2022/03/05 13:51:56;;;;;;;7.72;5.72;;;;;;;;;;143727;564;46020;-68
2022/03/05 13:54:39;;;;;;;7.68;5.55;;;;;;;;;;143731;577;45040;-68
2022/03/05 13:57:09;;;;;;;9.85;6.22;;;;;;;;;;143734;666;45021;-67
2022/03/05 13:59:48;;;;;;;11.35;5.87;;;;;;;;;;143727;613;46020;-67
2022/03/05 14:02:17;;;;;;;7.65;5.47;;;;;;;;;;143729;637;46010;-66
2022/03/05 14:05:08;;;;;;;7.80;5.40;;;;;;;;;;143729;564;46010;-67
2022/03/05 14:07:45;;;;;;;7.93;5.22;;;;;;;;;;143733;737;46012;-66
2022/03/05 14:10:15;;;;;;;8.30;6.12;;;;;;;;;;143729;676;46020;-67
2022/03/05 14:13:00;;;;;;;8.45;6.12;;;;;;;;;;143727;663;46917;-67
2022/03/05 14:15:28;;;;;;;;;;;;;;;;;;143736;971;45020;-67
2022/03/05 14:18:06;;;;;;;6.75;5.22;;;;;;;;;;143740;608;46011;-68
2022/03/05 14:20:45;;;;;;;7.95;5.80;;;;;;;;;;143726;583;47021;-67
2022/03/05 14:23:16;;;;;;;7.37;4.75;;;;;;;;;;143726;574;46020;-66
2022/03/05 14:25:54;;;;;;;7.62;5.30;;;;;;;;;;143729;670;45021;-67
2022/03/05 14:28:27;;;;;;;6.47;5.32;;;;;;;;;;143731;653;46010;-68
2022/03/05 14:30:54;;;;;;;8.55;5.55;;;;;;;;;;143726;607;46020;-68
2022/03/05 14:33:22;;;;;;;8.15;5.62;;;;;;;;;;143726;609;46021;-69
2022/03/05 14:35:49;;;;;;;9.25;6.47;;;;;;;;;;143729;581;45028;-67
2022/03/05 14:38:17;;;;;;;6.72;5.37;;;;;;;;;;143732;622;45020;-69
2022/03/05 14:40:45;;;;;;;6.55;5.30;;;;;;;;;;143726;575;46021;-68
2022/03/05 14:43:13;;;;;;;11.05;6.35;;;;;;;;;;143726;645;46020;-67
2022/03/05 14:45:41;;;;;;;9.25;6.15;;;;;;;;;;143724;564;47020;-67
2022/03/05 14:48:09;;;;;;;11.23;6.00;;;;;;;;;;143730;617;46020;-69